Time;durP1;ratioP1;P1;durP2;ratioP2;P2;SDS_P1;SDS_P2;PMS_P1;PMS_P2;Temp;Humidity;BMP_temperature;BMP_pressure;BME280_temperature;BME280_humidity;BME280_pressure;Samples;Min_cycle;Max_cycle;Signal;HPM_P1;HPM_P2
2022/05/30 00:00:40;;;;;;;7.45;2.42;;;;;;;;;;5065771;28;20052;-77
2022/05/30 00:03:07;;;;;;;9.30;2.58;;;;;;;;;;5082624;28;20133;-78
2022/05/30 00:05:33;;;;;;;7.35;2.35;;;;;;;;;;5079499;28;20098;-78
2022/05/30 00:08:00;;;;;;;11.82;2.40;;;;;;;;;;5083930;28;20124;-77
2022/05/30 00:10:27;;;;;;;7.90;2.40;;;;;;;;;;5061361;28;20535;-77
2022/05/30 00:12:55;;;;;;;5.22;1.90;;;;;;;;;;5064857;28;20064;-77
2022/05/30 00:15:22;;;;;;;8.45;2.60;;;;;;;;;;5074639;28;20164;-77
2022/05/30 00:17:52;;;;;;;6.53;2.20;;;;;;;;;;5066508;28;20055;-78
2022/05/30 00:20:18;;;;;;;7.70;2.43;;;;;;;;;;5063162;28;20803;-78
2022/05/30 00:22:46;;;;;;;6.15;2.35;;;;;;;;;;5069513;28;20135;-78
2022/05/30 00:25:12;;;;;;;5.30;2.50;;;;;;;;;;5091201;28;20052;-77
2022/05/30 00:27:38;;;;;;;5.90;2.35;;;;;;;;;;5067251;28;20060;-78
2022/05/30 00:30:05;;;;;;;6.60;2.33;;;;;;;;;;5097914;28;20098;-76
2022/05/30 00:32:33;;;;;;;6.85;2.58;;;;;;;;;;5073475;28;20108;-77
2022/05/30 00:34:59;;;;;;;10.48;2.47;;;;;;;;;;5084541;28;20110;-78
2022/05/30 00:37:26;;;;;;;8.60;2.53;;;;;;;;;;5079634;28;20067;-77
2022/05/30 00:39:53;;;;;;;7.03;2.30;;;;;;;;;;5078458;28;20541;-78
2022/05/30 00:42:21;;;;;;;7.47;2.65;;;;;;;;;;5081281;28;20103;-77
2022/05/30 00:44:48;;;;;;;6.57;2.75;;;;;;;;;;5062007;28;20155;-78
2022/05/30 00:47:15;;;;;;;6.80;2.35;;;;;;;;;;5064485;28;20114;-78
2022/05/30 00:49:43;;;;;;;7.53;2.70;;;;;;;;;;5053987;28;20431;-77
2022/05/30 00:52:14;;;;;;;9.13;2.90;;;;;;;;;;5056849;28;20553;-77
2022/05/30 00:54:40;;;;;;;;;;;;;;;;;;5060270;28;20994;-77
2022/05/30 00:57:22;;;;;;;7.95;2.40;;;;;;;;;;5057468;28;45109;-77
2022/05/30 00:59:57;;;;;;;7.95;2.33;;;;;;;;;;5063152;28;20868;-77
2022/05/30 01:02:25;;;;;;;5.82;2.53;;;;;;;;;;5064886;28;20319;-77
2022/05/30 01:07:37;;;;;;;6.63;2.58;;;;;;;;;;5074796;28;20056;-77
2022/05/30 01:10:06;;;;;;;7.65;2.60;;;;;;;;;;5065215;28;20103;-77
2022/05/30 01:12:38;;;;;;;7.43;2.60;;;;;;;;;;5068137;28;20084;-77
2022/05/30 01:15:06;;;;;;;8.50;2.30;;;;;;;;;;5068970;28;20131;-77
2022/05/30 01:17:32;;;;;;;7.75;2.20;;;;;;;;;;5064742;28;20181;-77
2022/05/30 01:20:02;;;;;;;6.80;2.30;;;;;;;;;;5099861;27;20054;-77
2022/05/30 01:22:47;;;;;;;6.97;2.97;;;;;;;;;;5067510;28;20076;-77
2022/05/30 01:25:29;;;;;;;12.00;2.35;;;;;;;;;;5086495;28;20518;-77
2022/05/30 01:27:56;;;;;;;5.70;1.75;;;;;;;;;;5064839;28;20183;-77
2022/05/30 01:30:22;;;;;;;7.55;2.17;;;;;;;;;;5067904;28;20076;-76
2022/05/30 01:32:48;;;;;;;7.25;1.52;;;;;;;;;;5059456;28;20056;-77
2022/05/30 01:35:25;;;;;;;9.70;1.80;;;;;;;;;;5063188;28;20191;-75
2022/05/30 01:37:51;;;;;;;5.45;1.60;;;;;;;;;;5065708;28;20561;-75
2022/05/30 01:40:18;;;;;;;5.10;1.70;;;;;;;;;;5082218;28;20144;-76
2022/05/30 01:42:45;;;;;;;5.60;1.73;;;;;;;;;;5096751;28;20052;-76
2022/05/30 01:45:11;;;;;;;4.30;1.50;;;;;;;;;;5075965;28;20059;-75
2022/05/30 01:47:37;;;;;;;5.15;1.30;;;;;;;;;;5073031;28;20059;-76
2022/05/30 01:50:04;;;;;;;7.60;1.83;;;;;;;;;;5082382;28;20817;-76
2022/05/30 01:52:31;;;;;;;4.18;1.40;;;;;;;;;;5063286;28;20079;-76
2022/05/30 01:54:58;;;;;;;6.15;1.48;;;;;;;;;;5061681;28;20507;-76
2022/05/30 01:57:24;;;;;;;4.28;1.27;;;;;;;;;;5066324;28;20087;-76
2022/05/30 01:59:50;;;;;;;5.13;1.55;;;;;;;;;;5081408;28;20052;-76
2022/05/30 02:02:16;;;;;;;6.80;1.50;;;;;;;;;;5066415;28;20642;-76
2022/05/30 02:04:43;;;;;;;7.88;1.55;;;;;;;;;;5060714;28;20056;-76
2022/05/30 02:07:10;;;;;;;6.10;1.63;;;;;;;;;;5066546;28;20052;-76
2022/05/30 02:09:36;;;;;;;8.48;1.88;;;;;;;;;;5081931;28;20590;-77
2022/05/30 02:12:09;;;;;;;6.55;1.90;;;;;;;;;;5076429;28;20060;-77
2022/05/30 02:14:35;;;;;;;4.65;2.03;;;;;;;;;;5141582;22;20059;-76
2022/05/30 02:17:02;;;;;;;9.35;2.22;;;;;;;;;;5074628;28;20060;-76
2022/05/30 02:19:28;;;;;;;7.63;2.50;;;;;;;;;;5068281;28;20593;-76
2022/05/30 02:21:55;;;;;;;5.50;2.15;;;;;;;;;;5070827;28;20680;-76
2022/05/30 02:24:21;;;;;;;7.65;2.53;;;;;;;;;;5082803;28;20140;-76
2022/05/30 02:26:47;;;;;;;7.15;2.42;;;;;;;;;;5086546;28;20060;-77
2022/05/30 02:29:14;;;;;;;8.20;2.38;;;;;;;;;;5088652;27;20439;-76
2022/05/30 02:31:42;;;;;;;7.78;2.33;;;;;;;;;;5094187;28;20087;-76
2022/05/30 02:36:54;;;;;;;6.57;2.80;;;;;;;;;;5093059;28;20048;-77
2022/05/30 02:39:21;;;;;;;5.85;2.35;;;;;;;;;;5093707;28;20387;-76
2022/05/30 02:41:48;;;;;;;8.40;2.40;;;;;;;;;;5099679;28;20062;-76
2022/05/30 02:44:18;;;;;;;6.20;2.70;;;;;;;;;;5082461;28;20057;-76
2022/05/30 02:46:55;;;;;;;6.57;2.60;;;;;;;;;;5090772;28;20052;-76
2022/05/30 02:49:21;;;;;;;7.07;2.33;;;;;;;;;;5086690;28;20131;-75
2022/05/30 02:51:48;;;;;;;4.30;2.08;;;;;;;;;;5081811;28;20146;-76
2022/05/30 02:54:14;;;;;;;6.00;2.45;;;;;;;;;;5084744;28;20506;-77
2022/05/30 02:56:41;;;;;;;6.13;2.25;;;;;;;;;;5100083;27;20105;-76
2022/05/30 02:59:08;;;;;;;5.13;1.95;;;;;;;;;;5090947;27;20502;-76
2022/05/30 03:01:35;;;;;;;7.95;2.65;;;;;;;;;;5084244;28;20057;-77
2022/05/30 03:04:02;;;;;;;5.70;2.15;;;;;;;;;;5090378;28;20058;-76
2022/05/30 03:06:29;;;;;;;8.95;2.78;;;;;;;;;;5088260;28;20518;-76
2022/05/30 03:08:56;;;;;;;6.55;2.08;;;;;;;;;;5092721;27;20052;-76
2022/05/30 03:11:23;;;;;;;6.30;2.47;;;;;;;;;;5103402;27;20068;-76
2022/05/30 03:13:49;;;;;;;6.85;2.40;;;;;;;;;;5092598;27;20150;-76
2022/05/30 03:16:15;;;;;;;8.35;2.45;;;;;;;;;;5091601;28;20048;-76
2022/05/30 03:18:43;;;;;;;8.13;2.70;;;;;;;;;;5099167;28;20063;-76
2022/05/30 03:21:10;;;;;;;5.57;2.38;;;;;;;;;;5085828;27;20144;-76
2022/05/30 03:23:37;;;;;;;5.10;2.10;;;;;;;;;;5102690;27;20414;-76
2022/05/30 03:26:04;;;;;;;4.57;2.13;;;;;;;;;;5088005;28;20529;-76
2022/05/30 03:28:31;;;;;;;5.55;2.05;;;;;;;;;;5088173;28;20135;-77
2022/05/30 03:30:58;;;;;;;7.32;2.42;;;;;;;;;;5091441;27;20499;-77
2022/05/30 03:33:24;;;;;;;6.15;2.30;;;;;;;;;;5089430;28;20442;-76
2022/05/30 03:35:50;;;;;;;6.60;2.75;;;;;;;;;;5090915;28;20052;-77
2022/05/30 03:38:17;;;;;;;6.13;2.25;;;;;;;;;;5089176;28;20066;-75
2022/05/30 03:40:43;;;;;;;7.57;2.38;;;;;;;;;;5093860;28;20059;-76
2022/05/30 03:43:10;;;;;;;5.15;2.25;;;;;;;;;;5090268;28;20553;-76
2022/05/30 03:45:38;;;;;;;4.97;2.22;;;;;;;;;;5082486;28;20804;-76
2022/05/30 03:48:05;;;;;;;5.88;1.85;;;;;;;;;;5085884;28;20080;-76
2022/05/30 03:50:31;;;;;;;5.57;1.95;;;;;;;;;;5083773;28;20056;-76
2022/05/30 03:53:04;;;;;;;4.57;1.90;;;;;;;;;;5087972;27;20825;-77
2022/05/30 03:55:34;;;;;;;3.72;1.73;;;;;;;;;;5082133;28;20048;-76
2022/05/30 03:58:02;;;;;;;5.63;1.88;;;;;;;;;;5090049;28;20103;-76
2022/05/30 04:00:28;;;;;;;4.60;2.05;;;;;;;;;;5085653;27;20061;-76
2022/05/30 04:02:54;;;;;;;6.45;2.10;;;;;;;;;;5092563;27;20532;-76
2022/05/30 04:05:21;;;;;;;3.95;1.98;;;;;;;;;;5093389;28;20063;-76
2022/05/30 04:07:47;;;;;;;5.65;2.15;;;;;;;;;;5100104;28;20056;-76
2022/05/30 04:10:14;;;;;;;4.53;1.98;;;;;;;;;;5102226;28;20048;-76
2022/05/30 04:12:42;;;;;;;4.82;1.98;;;;;;;;;;5095838;28;20047;-76
2022/05/30 04:15:10;;;;;;;7.53;2.00;;;;;;;;;;5099805;28;20056;-76
2022/05/30 04:17:37;;;;;;;8.13;1.88;;;;;;;;;;5090891;27;20063;-76
2022/05/30 04:20:05;;;;;;;5.30;1.88;;;;;;;;;;5090235;28;20543;-76
2022/05/30 04:22:31;;;;;;;8.85;2.30;;;;;;;;;;5093845;28;20083;-76
2022/05/30 04:24:57;;;;;;;6.07;2.10;;;;;;;;;;5085312;28;20063;-76
2022/05/30 04:27:24;;;;;;;5.05;2.00;;;;;;;;;;5095541;28;20047;-77
2022/05/30 04:29:50;;;;;;;5.20;2.10;;;;;;;;;;5103107;27;20068;-77
2022/05/30 04:32:17;;;;;;;5.43;2.25;;;;;;;;;;5089230;28;20059;-75
2022/05/30 04:34:43;;;;;;;4.28;1.90;;;;;;;;;;5096931;28;20139;-77
2022/05/30 04:37:10;;;;;;;5.35;2.05;;;;;;;;;;5084411;27;20048;-77
2022/05/30 04:39:36;;;;;;;4.90;2.08;;;;;;;;;;5089823;28;20078;-76
2022/05/30 04:42:03;;;;;;;5.60;2.08;;;;;;;;;;5098864;28;20052;-76
2022/05/30 04:44:29;;;;;;;4.38;2.00;;;;;;;;;;5100072;27;20052;-76
2022/05/30 04:46:57;;;;;;;4.47;2.05;;;;;;;;;;5091558;28;20578;-76
2022/05/30 04:49:24;;;;;;;5.75;2.08;;;;;;;;;;5089847;28;20131;-76
2022/05/30 04:51:50;;;;;;;7.65;2.58;;;;;;;;;;5096471;28;20082;-76
2022/05/30 04:54:17;;;;;;;6.50;2.20;;;;;;;;;;5101188;28;20134;-76
2022/05/30 04:56:43;;;;;;;5.50;1.98;;;;;;;;;;5092668;28;20591;-76
2022/05/30 04:59:10;;;;;;;6.07;2.20;;;;;;;;;;5104266;28;20087;-76
2022/05/30 05:01:36;;;;;;;6.10;2.38;;;;;;;;;;5093150;28;20054;-76
2022/05/30 05:04:04;;;;;;;5.68;2.42;;;;;;;;;;5092314;28;20057;-76
2022/05/30 05:06:30;;;;;;;6.90;2.40;;;;;;;;;;5090127;28;20850;-75
2022/05/30 05:09:18;;;;;;;6.82;3.20;;;;;;;;;;5092485;28;20049;-76
2022/05/30 05:11:45;;;;;;;5.78;2.55;;;;;;;;;;5091327;28;20052;-76
2022/05/30 05:14:12;;;;;;;8.02;2.72;;;;;;;;;;5094690;28;20595;-76
2022/05/30 05:16:38;;;;;;;7.20;2.60;;;;;;;;;;5086552;28;20139;-76
2022/05/30 05:19:05;;;;;;;6.20;2.42;;;;;;;;;;5083038;28;20048;-76
2022/05/30 05:21:36;;;;;;;10.43;3.08;;;;;;;;;;5098910;28;20045;-77
2022/05/30 05:24:03;;;;;;;5.90;2.53;;;;;;;;;;5086649;27;20102;-77
2022/05/30 05:26:30;;;;;;;5.13;2.42;;;;;;;;;;5089358;28;20056;-76
2022/05/30 05:28:57;;;;;;;7.68;2.47;;;;;;;;;;5100453;28;20123;-77
2022/05/30 05:31:25;;;;;;;6.30;2.70;;;;;;;;;;5088967;28;20052;-77
2022/05/30 05:33:53;;;;;;;5.78;2.65;;;;;;;;;;5092478;28;20060;-77
2022/05/30 05:36:24;;;;;;;5.65;2.63;;;;;;;;;;5093194;28;20083;-76
2022/05/30 05:38:51;;;;;;;10.30;2.63;;;;;;;;;;5096925;28;20134;-76
2022/05/30 05:41:17;;;;;;;11.45;2.97;;;;;;;;;;5091817;28;20080;-77
2022/05/30 05:43:44;;;;;;;7.88;2.45;;;;;;;;;;5097557;28;20408;-76
2022/05/30 05:46:14;;;;;;;6.72;2.60;;;;;;;;;;5090125;28;20140;-76
2022/05/30 05:48:41;;;;;;;9.57;2.78;;;;;;;;;;5091513;28;20057;-77
2022/05/30 05:51:08;;;;;;;7.28;3.05;;;;;;;;;;5082620;28;20052;-76
2022/05/30 05:53:34;;;;;;;6.25;2.50;;;;;;;;;;5100655;28;20530;-77
2022/05/30 05:56:11;;;;;;;7.90;2.10;;;;;;;;;;5098410;27;20075;-77
2022/05/30 05:58:37;;;;;;;7.75;2.28;;;;;;;;;;5083445;28;20094;-77
2022/05/30 06:01:07;;;;;;;6.30;2.38;;;;;;;;;;5091698;28;20507;-77
2022/05/30 06:03:36;;;;;;;6.82;2.00;;;;;;;;;;5082645;27;20395;-77
2022/05/30 06:06:06;;;;;;;6.90;2.20;;;;;;;;;;5086052;28;20966;-77
2022/05/30 06:08:33;;;;;;;6.47;1.90;;;;;;;;;;5090059;28;20044;-77
2022/05/30 06:11:05;;;;;;;6.03;1.63;;;;;;;;;;5103114;27;20091;-77
2022/05/30 06:13:32;;;;;;;8.65;1.98;;;;;;;;;;5087292;28;20984;-77
2022/05/30 06:15:59;;;;;;;10.75;1.95;;;;;;;;;;5084347;28;20052;-76
2022/05/30 06:18:25;;;;;;;7.35;2.08;;;;;;;;;;5084982;28;20385;-77
2022/05/30 06:20:56;;;;;;;6.90;2.00;;;;;;;;;;5105641;28;20250;-77
2022/05/30 06:23:23;;;;;;;6.68;1.90;;;;;;;;;;5105289;28;20066;-77
2022/05/30 06:25:49;;;;;;;9.35;1.88;;;;;;;;;;5106122;28;20147;-77
2022/05/30 06:28:15;;;;;;;5.00;1.35;;;;;;;;;;5106900;28;20150;-77
2022/05/30 06:30:42;;;;;;;5.35;1.38;;;;;;;;;;5105261;28;20578;-77
2022/05/30 06:33:08;;;;;;;5.38;1.27;;;;;;;;;;5105586;28;20075;-77
2022/05/30 06:35:38;;;;;;;6.28;1.00;;;;;;;;;;5094721;27;20103;-77
2022/05/30 06:38:04;;;;;;;4.68;1.25;;;;;;;;;;5106243;28;20087;-77
2022/05/30 06:40:31;;;;;;;6.15;1.13;;;;;;;;;;5097273;28;20156;-77
2022/05/30 06:42:57;;;;;;;9.77;1.33;;;;;;;;;;5099771;28;20138;-77
2022/05/30 06:45:23;;;;;;;6.10;1.35;;;;;;;;;;5102961;28;20063;-77
2022/05/30 06:47:50;;;;;;;4.25;1.10;;;;;;;;;;5103619;28;20070;-77
2022/05/30 06:50:17;;;;;;;6.65;1.58;;;;;;;;;;5090083;28;20184;-77
2022/05/30 06:52:43;;;;;;;8.45;1.30;;;;;;;;;;5086127;28;20053;-77
2022/05/30 06:55:10;;;;;;;8.60;1.20;;;;;;;;;;5100164;28;20053;-77
2022/05/30 07:00:21;;;;;;;5.53;1.50;;;;;;;;;;5104875;28;20143;-76
2022/05/30 07:02:47;;;;;;;6.13;1.17;;;;;;;;;;5096224;28;20052;-77
2022/05/30 07:05:14;;;;;;;5.68;0.98;;;;;;;;;;5096956;28;20083;-79
2022/05/30 07:07:41;;;;;;;5.57;0.95;;;;;;;;;;5100573;27;20135;-77
2022/05/30 07:10:08;;;;;;;4.30;0.80;;;;;;;;;;5103003;28;20051;-77
2022/05/30 07:12:35;;;;;;;6.20;1.00;;;;;;;;;;5098855;28;20102;-77
2022/05/30 07:15:02;;;;;;;4.22;0.90;;;;;;;;;;5082737;28;20052;-77
2022/05/30 07:17:28;;;;;;;4.50;0.85;;;;;;;;;;5100017;28;20138;-77
2022/05/30 07:19:56;;;;;;;4.13;0.90;;;;;;;;;;5100364;28;20122;-77
2022/05/30 07:22:26;;;;;;;7.43;1.10;;;;;;;;;;5104327;27;20052;-77
2022/05/30 07:24:52;;;;;;;4.90;1.00;;;;;;;;;;5093080;28;20812;-77
2022/05/30 07:27:18;;;;;;;4.88;1.05;;;;;;;;;;5103277;28;20052;-77
2022/05/30 07:29:45;;;;;;;3.00;0.80;;;;;;;;;;5095694;28;20098;-77
2022/05/30 07:32:11;;;;;;;3.88;0.90;;;;;;;;;;5096390;28;20048;-77
2022/05/30 07:34:38;;;;;;;3.92;0.90;;;;;;;;;;5092196;28;20512;-77
2022/05/30 07:37:04;;;;;;;4.07;0.82;;;;;;;;;;5096839;28;20048;-77
2022/05/30 07:39:31;;;;;;;2.45;0.70;;;;;;;;;;5103622;28;20048;-77
2022/05/30 07:41:57;;;;;;;3.58;1.08;;;;;;;;;;5094615;28;20155;-77
2022/05/30 07:44:24;;;;;;;6.25;1.00;;;;;;;;;;5095783;28;20060;-77
2022/05/30 07:46:51;;;;;;;2.30;0.63;;;;;;;;;;5103906;27;20146;-78
2022/05/30 07:49:23;;;;;;;5.55;0.90;;;;;;;;;;5093297;28;20063;-78
2022/05/30 07:51:49;;;;;;;8.23;1.42;;;;;;;;;;5103339;28;20058;-77
2022/05/30 07:54:16;;;;;;;5.00;1.02;;;;;;;;;;5100480;28;20558;-77
2022/05/30 07:56:42;;;;;;;4.47;1.08;;;;;;;;;;5087638;27;20059;-78
2022/05/30 07:59:08;;;;;;;5.30;0.85;;;;;;;;;;5096357;28;20315;-77
2022/05/30 08:01:35;;;;;;;5.40;0.88;;;;;;;;;;5083698;28;20140;-77
2022/05/30 08:04:01;;;;;;;4.65;0.80;;;;;;;;;;5089375;28;20084;-77
2022/05/30 08:06:30;;;;;;;4.82;0.80;;;;;;;;;;5096834;28;20067;-77
2022/05/30 08:08:57;;;;;;;4.03;1.05;;;;;;;;;;5097469;28;20158;-77
2022/05/30 08:11:23;;;;;;;3.13;0.73;;;;;;;;;;5088677;28;20052;-77
2022/05/30 08:13:50;;;;;;;4.72;0.98;;;;;;;;;;5084859;28;20052;-77
2022/05/30 08:16:18;;;;;;;4.80;0.88;;;;;;;;;;5103909;27;20054;-77
2022/05/30 08:19:05;;;;;;;5.03;0.90;;;;;;;;;;5103256;28;20063;-77
2022/05/30 08:21:38;;;;;;;3.85;0.93;;;;;;;;;;5093078;28;20083;-77
2022/05/30 08:24:05;;;;;;;4.53;0.80;;;;;;;;;;5086829;28;20063;-77
2022/05/30 08:26:31;;;;;;;4.00;0.80;;;;;;;;;;5077874;28;20067;-77
2022/05/30 08:28:59;;;;;;;4.40;0.93;;;;;;;;;;5088274;28;20076;-76
2022/05/30 08:31:25;;;;;;;5.00;0.93;;;;;;;;;;5080661;28;20052;-77
2022/05/30 08:33:52;;;;;;;5.15;0.77;;;;;;;;;;5081662;28;20292;-77
2022/05/30 08:36:18;;;;;;;2.67;0.80;;;;;;;;;;5086351;27;20056;-77
2022/05/30 08:38:45;;;;;;;5.75;0.90;;;;;;;;;;5097828;28;20228;-76
2022/05/30 08:43:58;;;;;;;3.72;1.25;;;;;;;;;;5095159;28;20052;-76
2022/05/30 08:46:25;;;;;;;2.30;0.80;;;;;;;;;;5094919;28;20049;-77
2022/05/30 08:49:01;;;;;;;3.72;0.95;;;;;;;;;;5091067;28;20044;-76
2022/05/30 08:51:38;;;;;;;3.08;0.93;;;;;;;;;;5086882;28;20601;-77
2022/05/30 08:54:05;;;;;;;6.88;1.10;;;;;;;;;;5099449;27;20060;-77
2022/05/30 08:56:34;;;;;;;3.92;0.95;;;;;;;;;;5098826;27;20048;-77
2022/05/30 08:59:18;;;;;;;5.80;1.13;;;;;;;;;;5098490;27;20565;-77
2022/05/30 09:02:07;;;;;;;6.57;1.00;;;;;;;;;;5095622;28;20059;-77
2022/05/30 09:05:03;;;;;;;5.13;1.33;;;;;;;;;;5088757;28;20143;-77
2022/05/30 09:07:31;;;;;;;4.47;1.27;;;;;;;;;;5067746;28;20440;-77
2022/05/30 09:09:57;;;;;;;6.70;1.10;;;;;;;;;;5080297;28;20103;-77
2022/05/30 09:12:43;;;;;;;4.55;1.02;;;;;;;;;;5087465;28;20053;-78
2022/05/30 09:15:14;;;;;;;5.53;1.10;;;;;;;;;;5087271;27;20048;-77
2022/05/30 09:17:40;;;;;;;4.50;1.20;;;;;;;;;;5084872;27;20490;-77
2022/05/30 09:20:09;;;;;;;5.93;1.30;;;;;;;;;;5083181;28;20058;-77
2022/05/30 09:22:38;;;;;;;4.47;1.00;;;;;;;;;;5081362;27;20053;-77
2022/05/30 09:27:50;;;;;;;6.90;1.30;;;;;;;;;;5085910;28;20547;-78
2022/05/30 09:30:21;;;;;;;4.45;1.45;;;;;;;;;;5087143;28;20078;-78
2022/05/30 09:32:58;;;;;;;6.90;1.30;;;;;;;;;;5084312;28;20048;-78
2022/05/30 09:35:29;;;;;;;5.90;1.20;;;;;;;;;;5076312;28;20078;-77
2022/05/30 09:38:11;;;;;;;6.65;1.00;;;;;;;;;;5086503;28;20057;-77
2022/05/30 09:40:46;;;;;;;7.20;1.33;;;;;;;;;;5081505;28;20106;-78
2022/05/30 09:43:21;;;;;;;5.35;0.95;;;;;;;;;;5089118;28;20036;-78
2022/05/30 09:45:50;;;;;;;8.48;1.45;;;;;;;;;;5088713;28;21441;-77
2022/05/30 09:48:20;;;;;;;5.85;1.20;;;;;;;;;;5085215;28;20052;-77
2022/05/30 09:50:48;;;;;;;6.57;1.40;;;;;;;;;;5090767;28;20132;-77
2022/05/30 09:53:34;;;;;;;4.80;1.10;;;;;;;;;;5083733;27;20056;-77
2022/05/30 09:56:00;;;;;;;8.68;1.52;;;;;;;;;;5095355;28;20060;-77
2022/05/30 09:58:59;;;;;;;7.25;1.20;;;;;;;;;;5095329;28;20380;-77
2022/05/30 10:01:26;;;;;;;6.63;1.33;;;;;;;;;;5070939;28;20925;-77
2022/05/30 10:03:59;;;;;;;7.07;1.13;;;;;;;;;;5088295;28;21699;-77
2022/05/30 10:06:27;;;;;;;4.18;1.08;;;;;;;;;;5093727;28;20060;-77
2022/05/30 10:09:07;;;;;;;4.70;1.30;;;;;;;;;;5108024;27;20138;-77
2022/05/30 10:11:35;;;;;;;5.30;1.20;;;;;;;;;;5089376;28;20052;-78
2022/05/30 10:14:18;;;;;;;5.28;1.20;;;;;;;;;;5093559;27;20056;-77
2022/05/30 10:16:45;;;;;;;4.82;1.45;;;;;;;;;;5100450;28;20056;-77
2022/05/30 10:19:22;;;;;;;7.18;1.10;;;;;;;;;;5092331;28;20096;-77
2022/05/30 10:28:17;;;;;;;6.45;1.30;;;;;;;;;;5086961;28;20056;-78
2022/05/30 10:30:52;;;;;;;4.85;1.20;;;;;;;;;;5089088;28;20106;-78
2022/05/30 10:33:25;;;;;;;6.18;1.33;;;;;;;;;;5093432;28;20070;-77
2022/05/30 10:36:07;;;;;;;4.55;1.30;;;;;;;;;;5091864;28;20530;-78
2022/05/30 10:38:43;;;;;;;6.57;1.40;;;;;;;;;;5070352;28;20060;-78
2022/05/30 10:41:13;;;;;;;5.93;1.30;;;;;;;;;;5091578;27;20122;-76
2022/05/30 10:43:46;;;;;;;4.28;1.00;;;;;;;;;;5092840;28;20062;-76
2022/05/30 10:46:33;;;;;;;5.20;1.05;;;;;;;;;;5098463;28;20048;-76
2022/05/30 10:49:03;;;;;;;5.65;1.02;;;;;;;;;;5063739;28;20472;-76
2022/05/30 10:51:30;;;;;;;;;;;;;;;;;;5096632;27;20051;-76
2022/05/30 10:53:59;;;;;;;3.85;0.90;;;;;;;;;;5098859;28;48265;-76
2022/05/30 10:56:30;;;;;;;5.38;0.90;;;;;;;;;;5087252;28;20052;-76
2022/05/30 10:59:02;;;;;;;2.92;0.80;;;;;;;;;;5099561;27;20521;-75
2022/05/30 11:01:32;;;;;;;4.60;1.15;;;;;;;;;;5101282;28;20534;-75
2022/05/30 11:04:08;;;;;;;7.55;1.23;;;;;;;;;;5095816;27;20296;-75
2022/05/30 11:06:37;;;;;;;7.90;1.35;;;;;;;;;;5091374;27;20064;-76
2022/05/30 11:09:12;;;;;;;3.47;1.03;;;;;;;;;;5096583;28;20463;-75
2022/05/30 11:12:04;;;;;;;8.45;1.27;;;;;;;;;;5086650;28;20058;-76
2022/05/30 11:14:50;;;;;;;4.97;1.20;;;;;;;;;;5064302;27;20053;-75
2022/05/30 11:17:22;;;;;;;4.28;1.10;;;;;;;;;;5089852;28;20062;-75
2022/05/30 11:19:59;;;;;;;5.07;1.17;;;;;;;;;;5096838;27;20049;-75
2022/05/30 11:22:41;;;;;;;5.10;1.30;;;;;;;;;;5081212;28;20078;-76
2022/05/30 11:25:15;;;;;;;5.22;1.42;;;;;;;;;;5091591;28;20572;-76
2022/05/30 11:27:42;;;;;;;2.60;0.90;;;;;;;;;;5092485;28;20426;-75
2022/05/30 11:30:20;;;;;;;5.15;1.15;;;;;;;;;;5089964;28;20455;-76
2022/05/30 11:32:57;;;;;;;3.90;1.00;;;;;;;;;;5088576;28;20052;-78
2022/05/30 11:35:35;;;;;;;4.93;1.25;;;;;;;;;;5089240;28;20416;-76
2022/05/30 11:38:10;;;;;;;4.78;1.10;;;;;;;;;;5099018;28;20043;-76
2022/05/30 11:40:46;;;;;;;7.32;1.23;;;;;;;;;;5095352;28;20516;-75
2022/05/30 11:43:18;;;;;;;3.97;1.00;;;;;;;;;;5085531;28;20054;-76
2022/05/30 11:45:53;;;;;;;4.03;0.90;;;;;;;;;;5089303;28;20056;-76
2022/05/30 11:48:40;;;;;;;3.30;1.00;;;;;;;;;;5088461;28;20466;-76
2022/05/30 11:51:10;;;;;;;7.13;1.25;;;;;;;;;;5088291;28;20147;-76
2022/05/30 11:53:45;;;;;;;4.13;1.10;;;;;;;;;;5091990;28;20089;-76
2022/05/30 11:56:24;;;;;;;5.55;1.02;;;;;;;;;;5087641;28;20691;-76
2022/05/30 11:59:06;;;;;;;6.60;1.15;;;;;;;;;;5089436;28;20470;-76
2022/05/30 12:01:34;;;;;;;6.18;1.20;;;;;;;;;;5089988;28;20121;-76
2022/05/30 12:04:19;;;;;;;4.25;1.23;;;;;;;;;;5085743;27;20470;-76
2022/05/30 12:06:56;;;;;;;5.60;1.00;;;;;;;;;;5081479;28;20055;-76
2022/05/30 12:09:25;;;;;;;7.60;1.20;;;;;;;;;;5096321;27;20060;-76
2022/05/30 12:12:11;;;;;;;5.05;1.00;;;;;;;;;;5093233;28;20052;-76
2022/05/30 12:14:56;;;;;;;5.03;1.10;;;;;;;;;;5083935;27;20051;-77
2022/05/30 12:23:50;;;;;;;4.63;1.10;;;;;;;;;;5084948;28;20056;-77
2022/05/30 12:26:37;;;;;;;5.80;0.93;;;;;;;;;;5091669;27;20259;-76
2022/05/30 12:29:04;;;;;;;3.10;0.82;;;;;;;;;;5093129;28;20053;-77
2022/05/30 12:31:34;;;;;;;4.25;0.90;;;;;;;;;;5086517;28;20182;-77
2022/05/30 12:34:01;;;;;;;5.18;1.00;;;;;;;;;;5085291;28;20045;-77
2022/05/30 12:36:31;;;;;;;4.10;1.00;;;;;;;;;;5090827;28;20090;-78
2022/05/30 12:38:59;;;;;;;1.90;0.77;;;;;;;;;;5094727;28;20060;-76
2022/05/30 12:41:27;;;;;;;3.50;0.90;;;;;;;;;;5085971;28;20055;-77
2022/05/30 12:43:54;;;;;;;3.90;0.88;;;;;;;;;;5079030;28;20052;-77
2022/05/30 12:46:31;;;;;;;4.07;0.95;;;;;;;;;;5096653;28;20607;-76
2022/05/30 12:49:15;;;;;;;3.45;0.90;;;;;;;;;;5091403;27;20053;-76
2022/05/30 12:51:57;;;;;;;2.17;0.70;;;;;;;;;;5086112;27;20056;-77
2022/05/30 12:54:33;;;;;;;5.43;1.30;;;;;;;;;;5090542;27;20147;-76
2022/05/30 12:57:04;;;;;;;5.03;0.88;;;;;;;;;;5086604;28;20989;-77
2022/05/30 12:59:33;;;;;;;5.25;0.80;;;;;;;;;;5087253;28;20051;-77
2022/05/30 13:02:00;;;;;;;4.22;0.95;;;;;;;;;;5086306;28;20053;-77
2022/05/30 13:04:34;;;;;;;4.93;1.00;;;;;;;;;;5086914;28;20080;-77
2022/05/30 13:07:01;;;;;;;4.57;1.63;;;;;;;;;;5093225;27;20646;-77
2022/05/30 13:09:33;;;;;;;3.58;1.02;;;;;;;;;;5089186;27;20059;-77
2022/05/30 13:12:14;;;;;;;3.60;0.90;;;;;;;;;;5092917;28;20509;-77
2022/05/30 13:14:48;;;;;;;3.70;0.90;;;;;;;;;;5093972;27;20044;-77
2022/05/30 13:17:18;;;;;;;5.40;0.90;;;;;;;;;;5094592;28;20056;-77
2022/05/30 13:19:53;;;;;;;3.72;0.90;;;;;;;;;;5089693;28;20060;-77
2022/05/30 13:22:29;;;;;;;5.22;0.90;;;;;;;;;;5081516;28;20074;-77
2022/05/30 13:24:56;;;;;;;7.97;0.95;;;;;;;;;;5085623;28;20052;-78
2022/05/30 13:27:24;;;;;;;5.63;1.10;;;;;;;;;;5088270;28;20052;-77
2022/05/30 13:29:51;;;;;;;4.95;0.80;;;;;;;;;;5090922;28;20528;-78
2022/05/30 13:32:20;;;;;;;5.13;1.20;;;;;;;;;;5092777;28;20048;-77
2022/05/30 13:34:51;;;;;;;3.42;1.17;;;;;;;;;;5077082;28;20404;-79
2022/05/30 13:37:23;;;;;;;3.08;0.90;;;;;;;;;;5092747;28;20143;-78
2022/05/30 13:39:50;;;;;;;4.13;1.08;;;;;;;;;;5098565;28;21535;-79
2022/05/30 13:42:16;;;;;;;4.25;1.02;;;;;;;;;;5090527;28;20538;-79
2022/05/30 13:44:44;;;;;;;3.05;1.00;;;;;;;;;;5084774;28;20048;-79
2022/05/30 13:47:14;;;;;;;5.07;1.08;;;;;;;;;;5098544;28;20052;-79
2022/05/30 13:49:42;;;;;;;3.97;0.95;;;;;;;;;;5092383;28;20060;-79
2022/05/30 13:52:22;;;;;;;5.10;1.27;;;;;;;;;;5091189;28;20143;-79
2022/05/30 13:54:53;;;;;;;3.15;0.90;;;;;;;;;;5098233;28;20059;-79
2022/05/30 13:57:19;;;;;;;3.72;1.20;;;;;;;;;;5097776;28;20064;-78
2022/05/30 13:59:49;;;;;;;6.22;1.10;;;;;;;;;;5091639;28;20055;-78
2022/05/30 14:02:40;;;;;;;3.55;0.95;;;;;;;;;;5089448;28;20112;-79
2022/05/30 14:05:11;;;;;;;4.05;1.23;;;;;;;;;;5092370;28;20144;-79
2022/05/30 14:07:44;;;;;;;5.18;1.27;;;;;;;;;;5102564;28;20044;-79
2022/05/30 14:10:12;;;;;;;2.42;0.82;;;;;;;;;;5103153;27;20049;-79
2022/05/30 14:12:59;;;;;;;4.30;1.17;;;;;;;;;;5078439;28;20063;-79
2022/05/30 14:15:26;;;;;;;5.40;1.67;;;;;;;;;;5107103;28;20075;-79
2022/05/30 14:17:54;;;;;;;2.83;0.90;;;;;;;;;;5098919;28;20096;-79
2022/05/30 14:20:23;;;;;;;4.68;1.17;;;;;;;;;;5096091;28;20055;-79
2022/05/30 14:22:54;;;;;;;4.38;1.23;;;;;;;;;;5098206;28;20060;-80
2022/05/30 14:25:20;;;;;;;3.33;0.88;;;;;;;;;;5097732;28;20096;-79
2022/05/30 14:27:48;;;;;;;3.13;1.02;;;;;;;;;;5098235;27;20692;-79
2022/05/30 14:30:30;;;;;;;4.00;1.20;;;;;;;;;;5099889;27;20096;-79
2022/05/30 14:33:06;;;;;;;4.32;0.95;;;;;;;;;;5108361;28;20063;-80
2022/05/30 14:35:32;;;;;;;5.15;1.00;;;;;;;;;;5109930;28;20179;-79
2022/05/30 14:38:00;;;;;;;4.93;1.05;;;;;;;;;;5092841;28;20066;-79
2022/05/30 14:40:27;;;;;;;4.43;1.08;;;;;;;;;;5095421;28;20798;-79
2022/05/30 14:42:54;;;;;;;7.03;1.30;;;;;;;;;;5103795;28;20574;-79
2022/05/30 14:45:42;;;;;;;3.47;1.30;;;;;;;;;;5101824;28;20052;-80
2022/05/30 14:48:15;;;;;;;5.72;1.10;;;;;;;;;;5092939;28;20571;-80
2022/05/30 14:50:48;;;;;;;4.03;1.23;;;;;;;;;;5101606;27;20966;-80
2022/05/30 14:53:16;;;;;;;4.90;1.25;;;;;;;;;;5109917;27;20825;-79
2022/05/30 14:55:44;;;;;;;5.30;1.33;;;;;;;;;;5088796;27;20152;-79
2022/05/30 14:58:15;;;;;;;5.50;1.27;;;;;;;;;;5096351;27;20060;-78
2022/05/30 15:00:58;;;;;;;5.43;1.40;;;;;;;;;;5098767;28;20079;-81
2022/05/30 15:06:11;;;;;;;6.60;2.22;;;;;;;;;;5087967;27;20056;-79
2022/05/30 15:08:38;;;;;;;7.43;2.40;;;;;;;;;;5089613;28;20052;-81
2022/05/30 15:11:17;;;;;;;5.30;2.22;;;;;;;;;;5097164;28;20083;-79
2022/05/30 15:13:44;;;;;;;5.28;2.00;;;;;;;;;;5103606;28;20970;-79
2022/05/30 15:16:11;;;;;;;4.20;2.00;;;;;;;;;;5094657;28;20104;-80
2022/05/30 15:18:37;;;;;;;5.18;2.10;;;;;;;;;;5098101;28;20103;-79
2022/05/30 15:21:05;;;;;;;5.50;2.17;;;;;;;;;;5087981;28;20056;-80
2022/05/30 15:23:31;;;;;;;5.40;2.50;;;;;;;;;;5082028;27;20095;-80
2022/05/30 15:25:58;;;;;;;7.85;2.20;;;;;;;;;;5085818;28;20108;-80
2022/05/30 15:28:24;;;;;;;6.13;2.38;;;;;;;;;;5070416;28;20052;-78